createdAt,value
2023-01-19T00:00:40.002Z,9.07
2023-01-19T00:03:17.763Z,7.32
2023-01-19T00:05:52.938Z,7.00
2023-01-19T00:08:27.752Z,7.25
2023-01-19T00:11:02.862Z,6.70
2023-01-19T00:13:37.686Z,7.20
2023-01-19T00:16:12.563Z,6.63
2023-01-19T00:18:50.307Z,6.80
2023-01-19T00:21:25.268Z,6.75
2023-01-19T00:24:00.668Z,7.10
2023-01-19T00:26:35.495Z,5.63
2023-01-19T00:29:14.140Z,6.38
2023-01-19T00:31:49.034Z,7.05
2023-01-19T00:34:23.867Z,7.85
2023-01-19T00:37:01.950Z,6.45
2023-01-19T00:39:36.766Z,7.43
2023-01-19T00:42:33.194Z,7.05
2023-01-19T00:45:11.271Z,6.55
2023-01-19T00:47:48.148Z,7.30
2023-01-19T00:50:26.174Z,7.35
2023-01-19T00:53:02.033Z,7.70
2023-01-19T00:55:37.123Z,7.30
2023-01-19T00:58:11.949Z,6.90
2023-01-19T01:00:46.791Z,7.28
2023-01-19T01:03:27.766Z,7.93
2023-01-19T01:06:03.679Z,7.97
2023-01-19T01:08:38.510Z,6.80
2023-01-19T01:11:13.343Z,7.68
2023-01-19T01:13:48.246Z,7.82
2023-01-19T01:16:23.521Z,7.30
2023-01-19T01:18:58.364Z,6.60
2023-01-19T01:21:34.621Z,7.10
2023-01-19T01:24:10.139Z,7.40
2023-01-19T01:26:45.095Z,7.18
2023-01-19T01:29:20.035Z,7.18
2023-01-19T01:31:54.938Z,8.32
2023-01-19T01:34:29.864Z,6.93
2023-01-19T01:37:08.121Z,7.22
2023-01-19T01:39:42.983Z,7.95
2023-01-19T01:42:20.843Z,7.55
2023-01-19T01:44:58.614Z,7.18
2023-01-19T01:47:42.435Z,7.00
2023-01-19T01:50:23.095Z,7.80
2023-01-19T01:53:06.528Z,7.30
2023-01-19T01:55:49.359Z,7.20
2023-01-19T01:58:24.193Z,7.05
2023-01-19T02:01:17.721Z,7.97
2023-01-19T02:03:53.851Z,7.53
2023-01-19T02:06:28.774Z,6.70
2023-01-19T02:09:27.954Z,7.22
2023-01-19T02:12:21.398Z,6.95
2023-01-19T02:14:56.210Z,7.07
2023-01-19T02:17:31.188Z,7.88
2023-01-19T02:20:06.994Z,7.90
2023-01-19T02:22:50.108Z,6.35
2023-01-19T02:25:25.505Z,6.95
2023-01-19T02:28:01.236Z,7.07
2023-01-19T02:30:39.936Z,6.32
2023-01-19T02:33:14.811Z,7.32
2023-01-19T02:35:52.292Z,7.43
2023-01-19T02:38:29.196Z,6.65
2023-01-19T02:41:07.741Z,7.30
2023-01-19T02:43:43.776Z,7.25
2023-01-19T02:46:18.749Z,7.50
2023-01-19T02:49:01.746Z,7.32
2023-01-19T02:51:36.650Z,7.25
2023-01-19T02:55:04.975Z,6.78
2023-01-19T02:57:56.355Z,7.90
2023-01-19T03:01:04.786Z,7.20
2023-01-19T03:03:58.564Z,7.35
2023-01-19T03:06:47.288Z,7.15
2023-01-19T03:09:34.059Z,7.90
2023-01-19T03:12:16.796Z,8.23
2023-01-19T03:14:59.755Z,8.07
2023-01-19T03:17:36.823Z,7.72
2023-01-19T03:20:18.647Z,7.78
2023-01-19T03:23:02.639Z,8.00
2023-01-19T03:25:43.002Z,6.80
2023-01-19T03:28:20.470Z,8.20
2023-01-19T03:31:07.957Z,7.10
2023-01-19T03:33:49.841Z,7.13
2023-01-19T03:36:37.843Z,6.63
2023-01-19T03:39:19.194Z,6.97
2023-01-19T03:42:03.464Z,7.00
2023-01-19T03:44:42.137Z,6.68
2023-01-19T03:47:20.112Z,6.90
2023-01-19T03:49:57.934Z,7.72
2023-01-19T03:52:33.656Z,9.27
2023-01-19T03:55:09.991Z,10.30
2023-01-19T03:57:45.208Z,11.15
2023-01-19T04:00:20.310Z,11.23
2023-01-19T04:02:55.645Z,9.50
2023-01-19T04:05:30.796Z,9.82
2023-01-19T04:08:06.483Z,9.60
2023-01-19T04:10:41.395Z,9.07
2023-01-19T04:13:16.262Z,8.00
2023-01-19T04:15:51.151Z,9.32
2023-01-19T04:18:26.153Z,8.30
2023-01-19T04:21:06.428Z,8.57
2023-01-19T04:23:41.295Z,8.63
2023-01-19T04:26:16.186Z,7.97
2023-01-19T04:28:51.059Z,7.57
2023-01-19T04:31:26.124Z,7.90
2023-01-19T04:34:02.166Z,7.07
2023-01-19T04:36:37.055Z,7.40
2023-01-19T04:39:12.301Z,7.15
2023-01-19T04:41:47.648Z,7.78
2023-01-19T04:44:22.516Z,7.35
2023-01-19T04:46:57.691Z,6.90
2023-01-19T04:49:32.586Z,7.22
2023-01-19T04:52:07.502Z,6.88
2023-01-19T04:54:43.213Z,6.80
2023-01-19T04:57:18.073Z,5.88
2023-01-19T04:59:52.932Z,6.93
2023-01-19T05:02:27.852Z,6.38
2023-01-19T05:05:04.936Z,6.97
2023-01-19T05:07:40.006Z,6.82
2023-01-19T05:10:14.873Z,6.55
2023-01-19T05:12:49.812Z,6.75
2023-01-19T05:15:24.701Z,6.65
2023-01-19T05:17:59.653Z,7.13
2023-01-19T05:20:34.575Z,6.55
2023-01-19T05:23:09.472Z,6.55
2023-01-19T05:25:44.815Z,6.75
2023-01-19T05:28:21.171Z,7.10
2023-01-19T05:30:56.093Z,7.38
2023-01-19T05:33:33.179Z,7.28
2023-01-19T05:36:08.568Z,7.57
2023-01-19T05:38:43.437Z,6.80
2023-01-19T05:41:18.448Z,7.20
2023-01-19T05:43:53.837Z,5.60
2023-01-19T05:46:28.797Z,7.88
2023-01-19T05:49:05.263Z,6.13
2023-01-19T05:51:45.136Z,7.60
2023-01-19T05:54:20.269Z,6.60
2023-01-19T05:56:55.259Z,6.85
2023-01-19T05:59:30.215Z,7.45
2023-01-19T06:02:05.190Z,6.68
2023-01-19T06:04:40.461Z,7.78
2023-01-19T06:07:15.455Z,6.47
2023-01-19T06:09:50.520Z,7.03
2023-01-19T06:12:25.531Z,6.75
2023-01-19T06:15:00.557Z,7.03
2023-01-19T06:17:35.543Z,7.13
2023-01-19T06:20:11.341Z,6.75
2023-01-19T06:22:47.660Z,6.65
2023-01-19T06:25:22.619Z,6.68
2023-01-19T06:27:57.540Z,7.47
2023-01-19T06:30:32.522Z,7.53
2023-01-19T06:33:09.402Z,6.75
2023-01-19T06:35:50.873Z,7.30
2023-01-19T06:38:25.978Z,7.35
2023-01-19T06:41:03.271Z,7.00
2023-01-19T06:43:38.316Z,7.60
2023-01-19T06:46:13.536Z,7.63
2023-01-19T06:48:48.470Z,7.20
2023-01-19T06:51:24.267Z,7.68
2023-01-19T06:53:59.254Z,7.50
2023-01-19T06:56:34.206Z,8.15
2023-01-19T06:59:10.089Z,7.70
2023-01-19T07:01:45.159Z,7.95
2023-01-19T07:04:20.198Z,8.02
2023-01-19T07:06:55.206Z,7.07
2023-01-19T07:09:30.187Z,7.00
2023-01-19T07:12:06.177Z,6.88
2023-01-19T07:14:41.059Z,6.95
2023-01-19T07:17:16.104Z,7.72
2023-01-19T07:19:51.068Z,6.97
2023-01-19T07:22:26.199Z,6.97
2023-01-19T07:25:01.755Z,6.63
2023-01-19T07:27:36.792Z,7.28
2023-01-19T07:30:12.218Z,6.97
2023-01-19T07:32:47.136Z,6.53
2023-01-19T07:35:22.213Z,7.35
2023-01-19T07:37:57.123Z,6.90
2023-01-19T07:40:33.394Z,8.00
2023-01-19T07:43:08.748Z,7.47
2023-01-19T07:45:44.969Z,6.57
2023-01-19T07:48:20.123Z,5.57
2023-01-19T07:51:01.429Z,5.47
2023-01-19T07:53:36.607Z,5.38
2023-01-19T07:56:12.093Z,5.20
2023-01-19T07:58:47.691Z,6.03
2023-01-19T08:01:23.546Z,5.90
2023-01-19T08:03:58.515Z,6.00
2023-01-19T08:06:36.537Z,5.28
2023-01-19T08:09:11.998Z,5.78
2023-01-19T08:11:47.019Z,5.35
2023-01-19T08:14:22.039Z,5.80
2023-01-19T08:17:01.593Z,5.88
2023-01-19T08:19:36.505Z,5.22
2023-01-19T08:22:11.460Z,5.90
2023-01-19T08:24:47.213Z,5.22
2023-01-19T08:27:22.851Z,5.00
2023-01-19T08:29:58.849Z,5.10
2023-01-19T08:32:33.747Z,4.95
2023-01-19T08:35:09.266Z,5.00
2023-01-19T08:37:44.307Z,5.28
2023-01-19T08:40:19.719Z,4.82
2023-01-19T08:43:03.556Z,5.03
2023-01-19T08:45:46.631Z,5.07
2023-01-19T08:48:23.576Z,4.88
2023-01-19T08:50:59.379Z,4.45
2023-01-19T08:53:34.683Z,4.68
2023-01-19T08:56:12.618Z,4.78
2023-01-19T08:58:56.228Z,3.92
2023-01-19T09:01:38.553Z,4.68
2023-01-19T09:04:13.569Z,4.05
2023-01-19T09:06:48.774Z,5.00
2023-01-19T09:09:23.740Z,4.40
2023-01-19T09:11:58.711Z,4.30
2023-01-19T09:14:33.625Z,4.63
2023-01-19T09:17:08.554Z,4.65
2023-01-19T09:19:43.641Z,4.40
2023-01-19T09:22:18.552Z,3.63
2023-01-19T09:24:53.511Z,4.17
2023-01-19T09:27:28.450Z,3.90
2023-01-19T09:30:05.940Z,4.77
2023-01-19T09:32:40.957Z,3.70
2023-01-19T09:35:16.464Z,3.63
2023-01-19T09:37:51.530Z,4.17
2023-01-19T09:40:27.326Z,3.80
2023-01-19T09:43:36.872Z,3.90
2023-01-19T09:46:17.898Z,4.00
2023-01-19T09:48:57.649Z,4.10
2023-01-19T09:51:40.018Z,3.93
2023-01-19T09:54:52.925Z,4.20
2023-01-19T09:57:29.990Z,4.40
2023-01-19T10:00:18.366Z,3.93
2023-01-19T10:03:14.787Z,4.00
2023-01-19T10:06:02.791Z,3.50
2023-01-19T10:09:04.125Z,3.77
2023-01-19T10:12:19.863Z,3.20
2023-01-19T10:15:23.072Z,3.30
2023-01-19T10:18:30.986Z,3.87
2023-01-19T10:21:10.552Z,3.20
2023-01-19T10:24:00.126Z,3.50
2023-01-19T10:26:50.087Z,3.20
2023-01-19T10:29:37.671Z,3.20
2023-01-19T10:32:26.505Z,2.50
2023-01-19T10:35:21.636Z,2.50
2023-01-19T10:38:01.375Z,3.10
2023-01-19T10:40:52.307Z,3.03
2023-01-19T10:43:41.544Z,3.13
2023-01-19T10:46:20.006Z,2.33
2023-01-19T10:48:55.856Z,3.20
2023-01-19T10:51:30.932Z,3.00
2023-01-19T10:54:12.609Z,3.50
2023-01-19T10:57:12.392Z,3.40
2023-01-19T10:59:50.905Z,3.33
2023-01-19T11:02:29.598Z,3.20
2023-01-19T11:05:28.482Z,3.60
2023-01-19T11:08:27.179Z,2.83
2023-01-19T11:11:05.114Z,3.00
2023-01-19T11:13:41.576Z,2.60
2023-01-19T11:16:27.772Z,3.23
2023-01-19T11:19:03.740Z,3.00
2023-01-19T11:21:38.837Z,3.00
2023-01-19T11:24:16.391Z,2.93
2023-01-19T11:27:03.650Z,3.00
2023-01-19T11:29:39.103Z,3.50
2023-01-19T11:32:22.408Z,2.93
2023-01-19T11:34:57.876Z,2.70
2023-01-19T11:37:34.558Z,3.57
2023-01-19T11:40:14.227Z,3.07
2023-01-19T11:42:49.319Z,3.23
2023-01-19T11:45:24.453Z,3.10
2023-01-19T11:48:04.757Z,2.80
2023-01-19T11:50:44.164Z,2.77
2023-01-19T11:53:25.847Z,2.90
2023-01-19T11:56:26.622Z,2.73
2023-01-19T11:59:02.972Z,2.30
2023-01-19T12:01:47.235Z,3.07
2023-01-19T12:04:36.534Z,2.60
2023-01-19T12:07:13.460Z,2.13
2023-01-19T12:09:54.645Z,2.83
2023-01-19T12:12:35.229Z,2.67
2023-01-19T12:15:33.272Z,3.70
2023-01-19T12:18:23.520Z,2.53
2023-01-19T12:20:58.899Z,2.70
2023-01-19T12:24:01.762Z,2.67
2023-01-19T12:26:54.503Z,3.67
2023-01-19T12:29:34.207Z,2.50
2023-01-19T12:32:16.664Z,2.47
2023-01-19T12:34:52.142Z,1.97
2023-01-19T12:37:37.243Z,2.67
2023-01-19T12:40:25.942Z,2.30
2023-01-19T12:43:05.135Z,3.20
2023-01-19T12:45:40.593Z,2.77
2023-01-19T12:48:26.345Z,3.40
2023-01-19T12:51:01.224Z,2.97
2023-01-19T12:53:36.600Z,2.63
2023-01-19T12:56:18.080Z,3.80
2023-01-19T12:58:53.040Z,4.13
2023-01-19T13:01:28.041Z,4.33
2023-01-19T13:04:31.517Z,4.03
2023-01-19T13:07:10.312Z,4.43
2023-01-19T13:09:45.307Z,5.07
2023-01-19T13:12:21.980Z,4.93
2023-01-19T13:15:34.431Z,4.70
2023-01-19T13:18:11.075Z,5.17
2023-01-19T13:21:06.840Z,4.50
2023-01-19T13:23:49.803Z,4.70
2023-01-19T13:26:57.430Z,4.73
2023-01-19T13:29:37.925Z,5.17
2023-01-19T13:32:19.293Z,4.47
2023-01-19T13:35:01.837Z,4.83
2023-01-19T13:37:43.401Z,3.63
2023-01-19T13:40:22.861Z,4.30
2023-01-19T13:42:58.633Z,3.83
2023-01-19T13:45:37.922Z,4.20
2023-01-19T13:48:19.608Z,3.90
2023-01-19T13:51:05.223Z,5.07
2023-01-19T13:53:40.291Z,4.80
2023-01-19T13:56:24.261Z,4.40
2023-01-19T13:59:07.013Z,5.23
2023-01-19T14:01:45.629Z,5.00
2023-01-19T14:04:31.997Z,6.00
2023-01-19T14:07:25.992Z,7.10
2023-01-19T14:10:15.039Z,6.90
2023-01-19T14:13:13.165Z,4.30
2023-01-19T14:15:50.581Z,4.17
2023-01-19T14:18:34.911Z,6.90
2023-01-19T14:21:15.935Z,4.90
2023-01-19T14:24:10.431Z,4.07
2023-01-19T14:26:54.671Z,4.63
2023-01-19T14:29:33.305Z,7.90
2023-01-19T14:32:24.819Z,10.00
2023-01-19T14:35:04.534Z,6.07
2023-01-19T14:37:48.421Z,10.57
2023-01-19T14:40:24.521Z,6.33
2023-01-19T14:43:04.223Z,4.93
2023-01-19T14:45:43.155Z,3.90
2023-01-19T14:48:22.072Z,3.97
2023-01-19T14:51:04.847Z,3.50
2023-01-19T14:53:39.835Z,4.10
2023-01-19T14:56:26.770Z,4.20
2023-01-19T14:59:05.509Z,4.50
2023-01-19T15:01:40.544Z,4.33
2023-01-19T15:04:15.551Z,4.93
2023-01-19T15:06:50.510Z,4.60
2023-01-19T15:09:25.607Z,4.87
2023-01-19T15:12:00.622Z,5.40
2023-01-19T15:14:35.538Z,5.40
2023-01-19T15:17:27.230Z,4.70
2023-01-19T15:20:02.158Z,4.63
2023-01-19T15:22:37.022Z,4.63
2023-01-19T15:25:18.365Z,5.27
2023-01-19T15:27:57.841Z,4.80
2023-01-19T15:30:36.120Z,4.57
2023-01-19T15:33:27.074Z,4.40
2023-01-19T15:36:02.094Z,5.40
2023-01-19T15:38:37.044Z,5.30
2023-01-19T15:41:18.061Z,5.90
2023-01-19T15:43:53.417Z,5.40
2023-01-19T15:46:28.417Z,4.97
2023-01-19T15:49:05.613Z,5.00
2023-01-19T15:51:40.504Z,4.30
2023-01-19T15:54:16.440Z,4.43
2023-01-19T15:56:52.671Z,4.60
2023-01-19T15:59:27.613Z,4.63
2023-01-19T16:02:03.430Z,4.40
2023-01-19T16:04:38.511Z,4.70
2023-01-19T16:07:13.736Z,5.53
2023-01-19T16:09:49.985Z,5.17
2023-01-19T16:12:25.014Z,5.87
2023-01-19T16:15:00.000Z,4.90
2023-01-19T16:17:35.000Z,4.53
2023-01-19T16:20:13.576Z,4.37
2023-01-19T16:22:49.387Z,4.53
2023-01-19T16:25:24.258Z,5.00
2023-01-19T16:27:59.306Z,4.93
2023-01-19T16:30:34.204Z,4.73
2023-01-19T16:33:11.492Z,5.23
2023-01-19T16:35:47.292Z,5.03
2023-01-19T16:38:23.468Z,5.13
2023-01-19T16:40:58.350Z,5.47
2023-01-19T16:43:33.396Z,6.10
2023-01-19T16:46:21.835Z,6.43
2023-01-19T16:49:19.321Z,5.70
2023-01-19T16:51:54.890Z,5.90
2023-01-19T16:54:30.100Z,6.20
2023-01-19T16:57:04.966Z,6.37
2023-01-19T16:59:40.133Z,6.57
2023-01-19T17:02:15.076Z,7.60
2023-01-19T17:04:50.010Z,7.83
2023-01-19T17:07:24.943Z,7.87
2023-01-19T17:10:00.100Z,7.60
2023-01-19T17:12:35.090Z,7.70
2023-01-19T17:15:10.571Z,6.90
2023-01-19T17:17:45.445Z,7.77
2023-01-19T17:20:20.419Z,7.70
2023-01-19T17:22:56.016Z,7.77
2023-01-19T17:25:31.183Z,7.37
2023-01-19T17:28:06.260Z,7.57
2023-01-19T17:30:41.259Z,7.57
2023-01-19T17:33:16.241Z,7.50
2023-01-19T17:35:51.348Z,8.67
2023-01-19T17:38:26.338Z,8.53
2023-01-19T17:41:01.384Z,7.20
2023-01-19T17:43:36.314Z,9.37
2023-01-19T17:46:12.276Z,8.73
2023-01-19T17:49:01.696Z,8.47
2023-01-19T17:51:37.355Z,7.73
2023-01-19T17:54:13.950Z,8.50
2023-01-19T17:56:51.061Z,9.53
2023-01-19T17:59:26.088Z,8.97
2023-01-19T18:02:01.321Z,10.37
2023-01-19T18:04:39.743Z,10.13
2023-01-19T18:07:14.602Z,9.87
2023-01-19T18:09:51.688Z,9.93
2023-01-19T18:12:26.616Z,9.43
2023-01-19T18:15:01.914Z,9.77
2023-01-19T18:17:37.380Z,8.93
2023-01-19T18:20:12.692Z,9.00
2023-01-19T18:22:47.841Z,8.93
2023-01-19T18:25:22.715Z,8.97
2023-01-19T18:27:57.628Z,9.17
2023-01-19T18:30:35.711Z,8.60
2023-01-19T18:33:10.713Z,8.93
2023-01-19T18:35:46.569Z,10.17
2023-01-19T18:38:22.436Z,9.50
2023-01-19T18:41:08.301Z,9.63
2023-01-19T18:43:44.135Z,9.97
2023-01-19T18:46:19.142Z,10.10
2023-01-19T18:48:54.264Z,9.80
2023-01-19T18:51:29.735Z,13.37
2023-01-19T18:54:04.783Z,15.27
2023-01-19T18:56:39.983Z,19.90
2023-01-19T18:59:14.978Z,17.33
2023-01-19T19:01:49.955Z,13.73
2023-01-19T19:04:24.947Z,11.77
2023-01-19T19:07:00.182Z,9.50
2023-01-19T19:09:36.039Z,9.20
2023-01-19T19:12:10.960Z,8.00
2023-01-19T19:14:45.836Z,8.13
2023-01-19T19:17:21.048Z,8.60
2023-01-19T19:19:55.897Z,8.13
2023-01-19T19:22:31.567Z,8.77
2023-01-19T19:25:06.789Z,8.80
2023-01-19T19:27:45.245Z,9.90
2023-01-19T19:30:21.249Z,10.67
2023-01-19T19:32:56.676Z,10.97
2023-01-19T19:35:32.420Z,11.90
2023-01-19T19:38:08.144Z,12.50
2023-01-19T19:40:42.997Z,13.03
2023-01-19T19:43:18.009Z,14.37
2023-01-19T19:46:00.999Z,12.60
2023-01-19T19:48:39.053Z,12.10
2023-01-19T19:51:23.801Z,12.57
2023-01-19T19:54:02.232Z,11.60
2023-01-19T19:56:37.109Z,11.27
2023-01-19T19:59:12.322Z,12.37
2023-01-19T20:01:49.737Z,11.23
2023-01-19T20:04:25.332Z,10.60
2023-01-19T20:07:00.277Z,9.70
2023-01-19T20:09:37.031Z,10.73
2023-01-19T20:12:11.891Z,11.37
2023-01-19T20:14:46.739Z,10.43
2023-01-19T20:17:23.139Z,10.63
2023-01-19T20:19:59.086Z,11.53
2023-01-19T20:22:33.942Z,11.00
2023-01-19T20:25:10.084Z,11.03
2023-01-19T20:27:46.141Z,10.17
2023-01-19T20:30:22.247Z,10.00
2023-01-19T20:32:57.165Z,10.30
2023-01-19T20:35:32.031Z,11.10
2023-01-19T20:38:06.964Z,10.23
2023-01-19T20:40:41.861Z,9.70
2023-01-19T20:43:16.783Z,10.70
2023-01-19T20:45:53.481Z,10.67
2023-01-19T20:48:28.602Z,9.60
2023-01-19T20:51:12.575Z,11.03
2023-01-19T20:53:48.501Z,11.00
2023-01-19T20:56:23.375Z,11.47
2023-01-19T20:58:59.429Z,11.13
2023-01-19T21:01:34.452Z,11.73
2023-01-19T21:04:10.908Z,11.93
2023-01-19T21:06:45.831Z,11.67
2023-01-19T21:09:22.721Z,12.07
2023-01-19T21:11:57.761Z,11.40
2023-01-19T21:14:32.633Z,10.90
2023-01-19T21:17:07.532Z,11.60
2023-01-19T21:19:42.411Z,12.30
2023-01-19T21:22:17.324Z,11.97
2023-01-19T21:24:52.194Z,11.90
2023-01-19T21:27:27.094Z,13.10
2023-01-19T21:30:02.395Z,11.87
2023-01-19T21:32:37.263Z,10.40
2023-01-19T21:35:12.328Z,11.50
2023-01-19T21:37:47.737Z,11.43
2023-01-19T21:40:22.627Z,11.63
2023-01-19T21:42:57.503Z,10.80
2023-01-19T21:45:32.399Z,11.70
2023-01-19T21:48:07.824Z,11.63
2023-01-19T21:50:43.022Z,11.20
2023-01-19T21:53:17.888Z,10.77
2023-01-19T21:55:52.855Z,11.57
2023-01-19T21:58:28.180Z,11.40
2023-01-19T22:01:15.368Z,11.50
2023-01-19T22:03:55.707Z,12.50
2023-01-19T22:06:30.661Z,11.70
2023-01-19T22:09:05.840Z,12.53
2023-01-19T22:11:40.691Z,12.00
2023-01-19T22:14:15.579Z,12.47
2023-01-19T22:16:50.486Z,11.80
2023-01-19T22:19:25.507Z,11.70
2023-01-19T22:22:00.364Z,12.63
2023-01-19T22:24:35.354Z,12.50
2023-01-19T22:27:10.199Z,13.67
2023-01-19T22:29:45.099Z,12.97
2023-01-19T22:32:19.969Z,13.30
2023-01-19T22:34:54.852Z,13.40
2023-01-19T22:37:29.708Z,12.97
2023-01-19T22:40:05.682Z,13.37
2023-01-19T22:42:40.537Z,13.90
2023-01-19T22:45:16.031Z,13.27
2023-01-19T22:47:50.941Z,11.30
2023-01-19T22:50:25.832Z,13.87
2023-01-19T22:53:00.675Z,14.40
2023-01-19T22:55:35.682Z,13.57
2023-01-19T22:58:10.530Z,14.13
2023-01-19T23:00:45.429Z,14.30
2023-01-19T23:03:20.306Z,13.97
2023-01-19T23:05:55.209Z,14.03
2023-01-19T23:08:30.168Z,12.83
2023-01-19T23:11:15.365Z,13.70
2023-01-19T23:13:51.152Z,13.60
2023-01-19T23:16:26.364Z,13.23
2023-01-19T23:19:01.370Z,12.83
2023-01-19T23:21:36.868Z,13.03
2023-01-19T23:24:12.091Z,12.87
2023-01-19T23:26:49.931Z,12.10
2023-01-19T23:29:24.834Z,11.97
2023-01-19T23:31:59.720Z,12.10
2023-01-19T23:34:34.578Z,11.80
2023-01-19T23:37:09.541Z,13.90
2023-01-19T23:39:44.435Z,12.83
2023-01-19T23:42:19.303Z,12.55
2023-01-19T23:44:55.257Z,12.40
2023-01-19T23:47:30.199Z,13.20
2023-01-19T23:50:05.901Z,12.67
2023-01-19T23:52:40.787Z,13.87
2023-01-19T23:55:16.683Z,12.40
2023-01-19T23:57:51.570Z,13.13
